createdAt,value
2017-07-19T00:00:19.466Z,29.31
2017-07-19T00:01:19.797Z,29.28
2017-07-19T00:02:19.817Z,29.28
2017-07-19T00:03:19.545Z,29.26
2017-07-19T00:04:19.579Z,29.31
2017-07-19T00:05:19.615Z,29.26
2017-07-19T00:06:19.647Z,29.24
2017-07-19T00:07:19.669Z,29.18
2017-07-19T00:08:19.699Z,29.23
2017-07-19T00:09:20.040Z,29.19
2017-07-19T00:10:19.753Z,29.27
2017-07-19T00:11:20.101Z,29.26
2017-07-19T00:12:20.130Z,29.26
2017-07-19T00:13:19.842Z,29.19
2017-07-19T00:14:19.563Z,29.27
2017-07-19T00:15:19.911Z,29.19
2017-07-19T00:16:20.253Z,29.11
2017-07-19T00:17:20.278Z,29.19
2017-07-19T00:18:20.602Z,29.27
2017-07-19T00:19:20.359Z,29.19
2017-07-19T00:20:19.745Z,29.23
2017-07-19T00:21:20.093Z,29.23
2017-07-19T00:22:20.117Z,29.18
2017-07-19T00:23:20.398Z,29.21
2017-07-19T00:24:20.496Z,29.15
2017-07-19T00:25:20.208Z,29.16
2017-07-19T00:26:20.237Z,29.21
2017-07-19T00:27:20.586Z,29.18
2017-07-19T00:28:20.599Z,29.15
2017-07-19T00:29:20.640Z,29.19
2017-07-19T00:30:20.048Z,29.18
2017-07-19T00:31:20.389Z,29.18
2017-07-19T00:32:20.730Z,29.12
2017-07-19T00:33:20.702Z,29.12
2017-07-19T00:34:20.802Z,29.11
2017-07-19T00:35:20.512Z,29.11
2017-07-19T00:36:20.850Z,29.12
2017-07-19T00:37:20.570Z,29.08
2017-07-19T00:38:21.223Z,29.12
2017-07-19T00:39:20.628Z,29.11
2017-07-19T00:40:20.664Z,29.05
2017-07-19T00:41:20.694Z,29.18
2017-07-19T00:42:20.730Z,29.08
2017-07-19T00:43:21.315Z,29.05
2017-07-19T00:44:20.796Z,29.08
2017-07-19T00:45:21.133Z,29.06
2017-07-19T00:46:21.158Z,29.02
2017-07-19T00:47:21.186Z,29.06
2017-07-19T00:48:21.163Z,29.02
2017-07-19T00:49:20.937Z,29.05
2017-07-19T00:50:21.277Z,29.11
2017-07-19T00:51:21.306Z,29.02
2017-07-19T00:52:21.026Z,28.96
2017-07-19T00:53:21.308Z,28.95
2017-07-19T00:54:21.408Z,28.95
2017-07-19T00:55:21.425Z,28.93
2017-07-19T00:56:21.471Z,28.93
2017-07-19T00:57:21.482Z,29
2017-07-19T00:58:21.768Z,28.95
2017-07-19T00:59:21.553Z,28.96
2017-07-19T01:00:21.577Z,28.92
2017-07-19T01:01:21.299Z,29.06
2017-07-19T01:02:21.015Z,28.96
2017-07-19T01:03:21.656Z,29.04
2017-07-19T01:04:21.696Z,28.98
2017-07-19T01:05:21.420Z,28.98
2017-07-19T01:06:21.446Z,28.98
2017-07-19T01:07:21.798Z,28.98
2017-07-19T01:08:22.067Z,28.98
2017-07-19T01:09:21.848Z,29.02
2017-07-19T01:10:21.564Z,28.96
2017-07-19T01:11:21.918Z,28.98
2017-07-19T01:12:21.951Z,28.98
2017-07-19T01:13:22.279Z,28.98
2017-07-19T01:14:21.689Z,29.04
2017-07-19T01:15:22.026Z,28.92
2017-07-19T01:16:22.058Z,28.89
2017-07-19T01:17:22.095Z,28.88
2017-07-19T01:18:22.108Z,28.93
2017-07-19T01:19:22.161Z,28.92
2017-07-19T01:20:21.874Z,29
2017-07-19T01:21:22.215Z,28.92
2017-07-19T01:22:22.248Z,28.98
2017-07-19T01:23:22.525Z,28.86
2017-07-19T01:24:22.297Z,28.88
2017-07-19T01:25:22.338Z,28.92
2017-07-19T01:26:22.379Z,28.92
2017-07-19T01:27:22.396Z,28.9
2017-07-19T01:28:22.721Z,28.95
2017-07-19T01:29:22.453Z,28.9
2017-07-19T01:30:22.496Z,28.9
2017-07-19T01:31:22.512Z,28.86
2017-07-19T01:32:22.236Z,28.93
2017-07-19T01:33:22.827Z,28.88
2017-07-19T01:34:22.285Z,28.81
2017-07-19T01:35:22.014Z,28.9
2017-07-19T01:36:22.655Z,28.86
2017-07-19T01:37:22.693Z,28.85
2017-07-19T01:38:22.708Z,28.83
2017-07-19T01:39:22.759Z,28.81
2017-07-19T01:40:22.781Z,28.88
2017-07-19T01:41:22.500Z,28.88
2017-07-19T01:42:22.532Z,28.86
2017-07-19T01:43:23.122Z,28.86
2017-07-19T01:44:22.905Z,28.88
2017-07-19T01:45:22.937Z,28.93
2017-07-19T01:46:22.967Z,28.89
2017-07-19T01:47:22.681Z,28.88
2017-07-19T01:48:22.660Z,28.81
2017-07-19T01:49:23.065Z,28.85
2017-07-19T01:50:23.083Z,28.83
2017-07-19T01:51:23.120Z,28.83
2017-07-19T01:52:23.149Z,28.89
2017-07-19T01:53:23.165Z,28.81
2017-07-19T01:54:23.201Z,28.85
2017-07-19T01:55:23.231Z,28.81
2017-07-19T01:56:23.259Z,28.85
2017-07-19T01:57:22.980Z,28.81
2017-07-19T01:58:23.637Z,28.78
2017-07-19T01:59:23.358Z,28.8
2017-07-19T02:00:23.063Z,28.78
2017-07-19T02:01:22.792Z,28.8
2017-07-19T02:02:23.128Z,28.8
2017-07-19T02:03:23.722Z,28.81
2017-07-19T02:04:23.502Z,28.76
2017-07-19T02:05:23.531Z,28.77
2017-07-19T02:06:23.248Z,28.73
2017-07-19T02:07:23.611Z,28.76
2017-07-19T02:08:23.605Z,28.77
2017-07-19T02:09:23.678Z,28.77
2017-07-19T02:10:23.683Z,28.76
2017-07-19T02:11:23.712Z,28.73
2017-07-19T02:12:23.431Z,28.76
2017-07-19T02:13:24.022Z,28.73
2017-07-19T02:14:23.815Z,28.76
2017-07-19T02:15:23.844Z,28.77
2017-07-19T02:16:23.869Z,28.71
2017-07-19T02:17:23.268Z,28.7
2017-07-19T02:18:23.910Z,28.76
2017-07-19T02:19:23.967Z,28.7
2017-07-19T02:20:23.671Z,28.71
2017-07-19T02:21:24.011Z,28.7
2017-07-19T02:22:23.734Z,28.67
2017-07-19T02:23:24.012Z,28.64
2017-07-19T02:24:23.791Z,28.7
2017-07-19T02:25:23.820Z,28.73
2017-07-19T02:26:23.541Z,28.68
2017-07-19T02:27:23.877Z,28.62
2017-07-19T02:28:24.157Z,28.67
2017-07-19T02:29:24.255Z,28.76
2017-07-19T02:30:23.669Z,28.71
2017-07-19T02:31:24.309Z,28.7
2017-07-19T02:32:24.337Z,28.64
2017-07-19T02:33:24.679Z,28.68
2017-07-19T02:34:24.103Z,28.61
2017-07-19T02:35:24.123Z,28.67
2017-07-19T02:36:24.468Z,28.68
2017-07-19T02:37:24.489Z,28.61
2017-07-19T02:38:23.899Z,28.66
2017-07-19T02:39:24.243Z,28.66
2017-07-19T02:40:23.969Z,28.66
2017-07-19T02:41:24.632Z,28.62
2017-07-19T02:42:24.337Z,28.68
2017-07-19T02:43:24.675Z,28.7
2017-07-19T02:44:24.391Z,28.67
2017-07-19T02:45:24.112Z,28.68
2017-07-19T02:46:24.457Z,28.66
2017-07-19T02:47:24.502Z,28.64
2017-07-19T02:48:24.827Z,28.66
2017-07-19T02:49:24.547Z,28.66
2017-07-19T02:50:24.609Z,28.68
2017-07-19T02:51:24.909Z,28.55
2017-07-19T02:52:24.643Z,28.62
2017-07-19T02:53:24.983Z,28.59
2017-07-19T02:54:24.384Z,28.64
2017-07-19T02:55:25.033Z,28.66
2017-07-19T02:56:24.757Z,28.64
2017-07-19T02:57:25.090Z,28.58
2017-07-19T02:58:24.815Z,28.56
2017-07-19T02:59:24.841Z,28.68
2017-07-19T03:00:25.185Z,28.59
2017-07-19T03:01:25.220Z,28.59
2017-07-19T03:02:24.614Z,28.62
2017-07-19T03:03:25.274Z,28.55
2017-07-19T03:04:24.996Z,28.64
2017-07-19T03:05:25.328Z,28.58
2017-07-19T03:06:25.358Z,28.56
2017-07-19T03:07:25.079Z,28.58
2017-07-19T03:08:25.420Z,28.64
2017-07-19T03:09:25.136Z,28.62
2017-07-19T03:10:25.477Z,28.62
2017-07-19T03:11:25.197Z,28.52
2017-07-19T03:12:25.222Z,28.52
2017-07-19T03:13:25.258Z,28.54
2017-07-19T03:14:25.589Z,28.51
2017-07-19T03:15:25.317Z,28.55
2017-07-19T03:16:25.050Z,28.56
2017-07-19T03:17:25.063Z,28.54
2017-07-19T03:18:25.727Z,28.52
2017-07-19T03:19:25.996Z,28.52
2017-07-19T03:20:25.469Z,28.55
2017-07-19T03:21:25.182Z,28.59
2017-07-19T03:22:25.847Z,28.58
2017-07-19T03:23:25.868Z,28.52
2017-07-19T03:24:26.197Z,28.54
2017-07-19T03:25:25.627Z,28.56
2017-07-19T03:26:25.972Z,28.52
2017-07-19T03:27:25.980Z,28.59
2017-07-19T03:28:26.016Z,28.52
2017-07-19T03:29:25.996Z,28.52
2017-07-19T03:30:26.073Z,28.51
2017-07-19T03:31:26.117Z,28.52
2017-07-19T03:32:26.150Z,28.55
2017-07-19T03:33:26.168Z,28.52
2017-07-19T03:34:26.497Z,28.54
2017-07-19T03:35:25.910Z,28.49
2017-07-19T03:36:25.959Z,28.51
2017-07-19T03:37:25.666Z,28.55
2017-07-19T03:38:26.016Z,28.55
2017-07-19T03:39:26.288Z,28.56
2017-07-19T03:40:25.762Z,28.55
2017-07-19T03:41:25.774Z,28.49
2017-07-19T03:42:26.133Z,28.51
2017-07-19T03:43:26.464Z,28.58
2017-07-19T03:44:26.436Z,28.52
2017-07-19T03:45:26.522Z,28.54
2017-07-19T03:46:26.555Z,28.55
2017-07-19T03:47:26.263Z,28.52
2017-07-19T03:48:26.315Z,28.55
2017-07-19T03:49:26.624Z,28.51
2017-07-19T03:50:26.673Z,28.54
2017-07-19T03:51:26.699Z,28.49
2017-07-19T03:52:26.418Z,28.58
2017-07-19T03:53:26.756Z,28.55
2017-07-19T03:54:26.784Z,28.51
2017-07-19T03:55:26.506Z,28.51
2017-07-19T03:56:26.855Z,28.44
2017-07-19T03:57:26.884Z,28.58
2017-07-19T03:58:26.597Z,28.54
2017-07-19T03:59:27.194Z,28.58
2017-07-19T04:00:26.971Z,28.48
2017-07-19T04:01:26.999Z,28.43
2017-07-19T04:02:26.711Z,28.51
2017-07-19T04:03:26.745Z,28.41
2017-07-19T04:04:27.082Z,28.4
2017-07-19T04:05:26.797Z,28.43
2017-07-19T04:06:26.851Z,28.43
2017-07-19T04:07:26.870Z,28.49
2017-07-19T04:08:26.908Z,28.46
2017-07-19T04:09:27.232Z,28.46
2017-07-19T04:10:26.954Z,28.48
2017-07-19T04:11:26.976Z,28.46
2017-07-19T04:12:27.336Z,28.4
2017-07-19T04:13:27.072Z,28.55
2017-07-19T04:14:27.324Z,28.52
2017-07-19T04:15:27.414Z,28.54
2017-07-19T04:16:27.129Z,28.39
2017-07-19T04:17:26.860Z,28.54
2017-07-19T04:18:27.197Z,28.54
2017-07-19T04:19:27.830Z,28.52
2017-07-19T04:20:26.940Z,28.4
2017-07-19T04:21:27.279Z,28.51
2017-07-19T04:22:27.329Z,28.41
2017-07-19T04:23:27.653Z,28.51
2017-07-19T04:24:27.058Z,28.51
2017-07-19T04:25:27.710Z,28.51
2017-07-19T04:26:27.432Z,28.49
2017-07-19T04:27:27.460Z,28.37
2017-07-19T04:28:27.484Z,28.49
2017-07-19T04:29:27.826Z,28.43
2017-07-19T04:30:27.863Z,28.39
2017-07-19T04:31:27.606Z,28.48
2017-07-19T04:32:27.920Z,28.43
2017-07-19T04:33:27.649Z,28.39
2017-07-19T04:34:27.666Z,28.44
2017-07-19T04:35:28.010Z,28.49
2017-07-19T04:36:28.050Z,28.55
2017-07-19T04:37:28.072Z,28.51
2017-07-19T04:38:28.107Z,28.49
2017-07-19T04:39:28.126Z,28.44
2017-07-19T04:40:27.854Z,28.52
2017-07-19T04:41:27.872Z,28.54
2017-07-19T04:42:28.217Z,28.52
2017-07-19T04:43:27.624Z,28.51
2017-07-19T04:44:28.278Z,28.37
2017-07-19T04:45:28.244Z,28.43
2017-07-19T04:46:28.028Z,28.44
2017-07-19T04:47:28.364Z,28.44
2017-07-19T04:48:28.401Z,28.39
2017-07-19T04:49:28.114Z,28.48
2017-07-19T04:50:28.702Z,28.46
2017-07-19T04:51:28.492Z,28.41
2017-07-19T04:52:28.504Z,28.48
2017-07-19T04:53:28.234Z,28.44
2017-07-19T04:54:28.573Z,28.41
2017-07-19T04:55:28.548Z,28.49
2017-07-19T04:56:28.636Z,28.39
2017-07-19T04:57:28.345Z,28.52
2017-07-19T04:58:28.381Z,28.51
2017-07-19T04:59:28.722Z,28.44
2017-07-19T05:00:28.692Z,28.49
2017-07-19T05:01:28.468Z,28.52
2017-07-19T05:02:28.497Z,28.37
2017-07-19T05:03:28.538Z,28.48
2017-07-19T05:04:28.562Z,28.44
2017-07-19T05:05:28.883Z,28.49
2017-07-19T05:06:28.612Z,28.41
2017-07-19T05:07:28.654Z,28.49
2017-07-19T05:08:28.678Z,28.55
2017-07-19T05:09:28.706Z,28.41
2017-07-19T05:10:28.676Z,28.49
2017-07-19T05:11:28.452Z,28.54
2017-07-19T05:12:29.108Z,28.55
2017-07-19T05:13:29.141Z,28.44
2017-07-19T05:14:28.852Z,28.59
2017-07-19T05:15:29.443Z,28.46
2017-07-19T05:16:28.605Z,28.44
2017-07-19T05:17:28.945Z,28.49
2017-07-19T05:18:28.974Z,28.48
2017-07-19T05:19:28.998Z,28.41
2017-07-19T05:20:29.595Z,28.41
2017-07-19T05:21:28.756Z,28.43
2017-07-19T05:22:29.129Z,28.4
2017-07-19T05:23:28.808Z,28.51
2017-07-19T05:24:29.467Z,28.46
2017-07-19T05:25:29.742Z,28.43
2017-07-19T05:26:29.212Z,28.43
2017-07-19T05:27:28.929Z,28.52
2017-07-19T05:28:29.582Z,28.52
2017-07-19T05:29:29.315Z,28.51
2017-07-19T05:30:29.614Z,28.41
2017-07-19T05:31:29.672Z,28.56
2017-07-19T05:32:29.709Z,28.46
2017-07-19T05:33:29.730Z,28.49
2017-07-19T05:34:29.159Z,28.43
2017-07-19T05:35:29.169Z,28.44
2017-07-19T05:36:29.821Z,28.52
2017-07-19T05:37:29.846Z,28.49
2017-07-19T05:38:29.574Z,28.39
2017-07-19T05:39:29.595Z,28.37
2017-07-19T05:40:29.940Z,28.36
2017-07-19T05:41:29.658Z,28.44
2017-07-19T05:42:29.685Z,28.39
2017-07-19T05:43:30.024Z,28.4
2017-07-19T05:44:30.059Z,28.39
2017-07-19T05:45:30.087Z,28.36
2017-07-19T05:46:30.116Z,28.34
2017-07-19T05:47:30.153Z,28.41
2017-07-19T05:48:29.867Z,28.37
2017-07-19T05:49:30.206Z,28.39
2017-07-19T05:50:30.252Z,28.34
2017-07-19T05:51:30.264Z,28.41
2017-07-19T05:52:29.988Z,28.39
2017-07-19T05:53:30.326Z,28.39
2017-07-19T05:54:29.737Z,28.39
2017-07-19T05:55:29.759Z,28.31
2017-07-19T05:56:30.100Z,28.36
2017-07-19T05:57:30.125Z,28.41
2017-07-19T05:58:30.482Z,28.44
2017-07-19T05:59:30.504Z,28.4
2017-07-19T06:00:30.224Z,28.4
2017-07-19T06:01:30.252Z,28.41
2017-07-19T06:02:30.594Z,28.4
2017-07-19T06:03:30.639Z,28.37
2017-07-19T06:04:30.656Z,28.41
2017-07-19T06:05:30.400Z,28.44
2017-07-19T06:06:30.398Z,28.44
2017-07-19T06:07:30.742Z,28.41
2017-07-19T06:08:30.765Z,28.4
2017-07-19T06:09:30.800Z,28.49
2017-07-19T06:10:30.520Z,28.49
2017-07-19T06:11:30.867Z,28.49
2017-07-19T06:12:30.898Z,28.52
2017-07-19T06:13:30.928Z,28.49
2017-07-19T06:14:30.664Z,28.39
2017-07-19T06:15:30.669Z,28.49
2017-07-19T06:16:30.706Z,28.55
2017-07-19T06:17:30.731Z,28.51
2017-07-19T06:18:30.775Z,28.54
2017-07-19T06:19:30.473Z,28.46
2017-07-19T06:20:30.817Z,28.44
2017-07-19T06:21:31.162Z,28.43
2017-07-19T06:22:30.886Z,28.49
2017-07-19T06:23:30.919Z,28.49
2017-07-19T06:24:30.932Z,28.49
2017-07-19T06:25:30.965Z,28.52
2017-07-19T06:26:31.001Z,28.49
2017-07-19T06:27:31.026Z,28.43
2017-07-19T06:28:31.372Z,28.37
2017-07-19T06:29:31.092Z,28.37
2017-07-19T06:30:31.428Z,28.44
2017-07-19T06:31:30.834Z,28.51
2017-07-19T06:32:31.482Z,28.51
2017-07-19T06:33:31.212Z,28.58
2017-07-19T06:34:31.549Z,28.44
2017-07-19T06:35:31.581Z,28.55
2017-07-19T06:36:31.617Z,28.54
2017-07-19T06:37:31.639Z,28.58
2017-07-19T06:38:31.047Z,28.46
2017-07-19T06:39:31.393Z,28.39
2017-07-19T06:40:31.720Z,28.44
2017-07-19T06:41:31.750Z,28.46
2017-07-19T06:42:31.483Z,28.4
2017-07-19T06:43:31.822Z,28.49
2017-07-19T06:44:31.845Z,28.51
2017-07-19T06:45:31.565Z,28.55
2017-07-19T06:46:31.846Z,28.56
2017-07-19T06:47:31.630Z,28.55
2017-07-19T06:48:31.656Z,28.51
2017-07-19T06:49:31.692Z,28.56
2017-07-19T06:50:32.022Z,28.56
2017-07-19T06:51:31.992Z,28.49
2017-07-19T06:52:32.080Z,28.58
2017-07-19T06:53:31.806Z,28.61
2017-07-19T06:54:31.833Z,28.48
2017-07-19T06:55:32.181Z,28.59
2017-07-19T06:56:32.458Z,28.54
2017-07-19T06:57:32.240Z,28.59
2017-07-19T06:58:32.266Z,28.55
2017-07-19T06:59:32.289Z,28.55
2017-07-19T07:00:32.009Z,28.59
2017-07-19T07:01:32.345Z,28.68
2017-07-19T07:02:31.762Z,28.66
2017-07-19T07:03:32.411Z,28.62
2017-07-19T07:04:32.440Z,28.59
2017-07-19T07:05:31.850Z,28.54
2017-07-19T07:06:32.446Z,28.67
2017-07-19T07:07:32.219Z,28.64
2017-07-19T07:08:32.569Z,28.61
2017-07-19T07:09:31.972Z,28.61
2017-07-19T07:10:32.625Z,28.67
2017-07-19T07:11:32.593Z,28.66
2017-07-19T07:12:32.376Z,28.68
2017-07-19T07:13:32.396Z,28.62
2017-07-19T07:14:32.125Z,28.62
2017-07-19T07:15:32.778Z,28.68
2017-07-19T07:16:33.043Z,28.68
2017-07-19T07:17:32.519Z,28.67
2017-07-19T07:18:32.553Z,28.7
2017-07-19T07:19:32.582Z,28.66
2017-07-19T07:20:32.921Z,28.71
2017-07-19T07:21:32.895Z,28.66
2017-07-19T07:22:32.665Z,28.62
2017-07-19T07:23:32.703Z,28.66
2017-07-19T07:24:33.046Z,28.68
2017-07-19T07:25:32.761Z,28.73
2017-07-19T07:26:33.403Z,28.7
2017-07-19T07:27:33.128Z,28.64
2017-07-19T07:28:33.170Z,28.68
2017-07-19T07:29:32.886Z,28.7
2017-07-19T07:30:32.905Z,28.7
2017-07-19T07:31:32.630Z,28.76
2017-07-19T07:32:33.292Z,28.7
2017-07-19T07:33:33.316Z,28.7
2017-07-19T07:34:33.341Z,28.67
2017-07-19T07:35:33.071Z,28.66
2017-07-19T07:36:32.778Z,28.71
2017-07-19T07:37:33.124Z,28.7
2017-07-19T07:38:33.482Z,28.73
2017-07-19T07:39:33.494Z,28.76
2017-07-19T07:40:33.531Z,28.68
2017-07-19T07:41:33.243Z,28.67
2017-07-19T07:42:33.272Z,28.7
2017-07-19T07:43:33.615Z,28.76
2017-07-19T07:44:33.326Z,28.74
2017-07-19T07:45:33.051Z,28.7
2017-07-19T07:46:33.712Z,28.73
2017-07-19T07:47:33.731Z,28.71
2017-07-19T07:48:33.768Z,28.71
2017-07-19T07:49:33.793Z,28.76
2017-07-19T07:50:33.515Z,28.76
2017-07-19T07:51:33.859Z,28.73
2017-07-19T07:52:34.179Z,28.73
2017-07-19T07:53:33.626Z,28.73
2017-07-19T07:54:33.635Z,28.76
2017-07-19T07:55:33.670Z,28.76
2017-07-19T07:56:34.012Z,28.77
2017-07-19T07:57:33.976Z,28.76
2017-07-19T07:58:33.753Z,28.76
2017-07-19T07:59:34.104Z,28.78
2017-07-19T08:00:33.810Z,28.81
2017-07-19T08:01:33.879Z,28.76
2017-07-19T08:02:34.433Z,28.78
2017-07-19T08:03:33.909Z,28.77
2017-07-19T08:04:34.247Z,28.8
2017-07-19T08:05:33.966Z,28.78
2017-07-19T08:06:34.310Z,28.78
2017-07-19T08:07:34.580Z,28.83
2017-07-19T08:08:34.380Z,28.8
2017-07-19T08:09:34.082Z,28.78
2017-07-19T08:10:34.115Z,28.78
2017-07-19T08:11:33.835Z,28.85
2017-07-19T08:12:34.535Z,28.83
2017-07-19T08:13:34.254Z,28.78
2017-07-19T08:14:34.534Z,28.8
2017-07-19T08:15:34.574Z,28.81
2017-07-19T08:16:34.619Z,28.8
2017-07-19T08:17:34.631Z,28.78
2017-07-19T08:18:34.353Z,28.83
2017-07-19T08:19:34.072Z,28.81
2017-07-19T08:20:34.731Z,28.88
2017-07-19T08:21:34.445Z,28.89
2017-07-19T08:22:34.469Z,28.85
2017-07-19T08:23:34.202Z,28.86
2017-07-19T08:24:34.231Z,28.88
2017-07-19T08:25:34.255Z,28.83
2017-07-19T08:26:34.908Z,28.88
2017-07-19T08:27:35.193Z,28.9
2017-07-19T08:28:34.675Z,28.88
2017-07-19T08:29:34.684Z,28.88
2017-07-19T08:30:35.028Z,28.9
2017-07-19T08:31:34.748Z,28.83
2017-07-19T08:32:35.090Z,28.92
2017-07-19T08:33:35.114Z,28.9
2017-07-19T08:34:35.152Z,28.93
2017-07-19T08:35:34.874Z,28.93
2017-07-19T08:36:34.585Z,28.89
2017-07-19T08:37:34.930Z,28.81
2017-07-19T08:38:35.266Z,28.93
2017-07-19T08:39:35.327Z,28.96
2017-07-19T08:40:34.716Z,28.86
2017-07-19T08:41:35.064Z,28.95
2017-07-19T08:42:35.402Z,28.95
2017-07-19T08:43:35.122Z,28.89
2017-07-19T08:44:35.147Z,28.98
2017-07-19T08:45:35.228Z,28.9
2017-07-19T08:46:35.211Z,29.04
2017-07-19T08:47:35.542Z,28.98
2017-07-19T08:48:35.587Z,28.96
2017-07-19T08:49:34.980Z,28.9
2017-07-19T08:50:35.635Z,29.05
2017-07-19T08:51:35.661Z,29.08
2017-07-19T08:52:35.379Z,29.05
2017-07-19T08:53:35.415Z,28.95
2017-07-19T08:54:35.748Z,29
2017-07-19T08:55:35.781Z,29.08
2017-07-19T08:56:35.822Z,29.11
2017-07-19T08:57:35.211Z,29.09
2017-07-19T08:58:35.838Z,29.06
2017-07-19T08:59:35.297Z,29.05
2017-07-19T09:00:35.932Z,29.05
2017-07-19T09:01:35.654Z,29.09
2017-07-19T09:02:35.683Z,29.12
2017-07-19T09:03:36.339Z,29.08
2017-07-19T09:04:36.056Z,29.15
2017-07-19T09:05:36.085Z,29.15
2017-07-19T09:06:35.806Z,29.15
2017-07-19T09:07:35.809Z,29.16
2017-07-19T09:08:36.484Z,29.16
2017-07-19T09:09:36.201Z,29.16
2017-07-19T09:10:35.946Z,29.16
2017-07-19T09:11:35.952Z,29.18
2017-07-19T09:12:36.306Z,29.16
2017-07-19T09:13:36.268Z,29.14
2017-07-19T09:14:36.049Z,29.12
2017-07-19T09:15:36.078Z,29.16
2017-07-19T09:16:35.793Z,29.18
2017-07-19T09:17:36.137Z,29.15
2017-07-19T09:18:36.821Z,29.14
2017-07-19T09:19:36.513Z,29.19
2017-07-19T09:20:35.921Z,29.21
2017-07-19T09:21:36.258Z,29.15
2017-07-19T09:22:35.995Z,29.18
2017-07-19T09:23:36.572Z,29.19
2017-07-19T09:24:36.666Z,29.14
2017-07-19T09:25:36.382Z,29.3
2017-07-19T09:26:36.419Z,29.19
2017-07-19T09:27:36.440Z,29.19
2017-07-19T09:28:37.091Z,29.24
2017-07-19T09:29:36.514Z,29.36
2017-07-19T09:30:36.533Z,29.18
2017-07-19T09:31:36.579Z,29.31
2017-07-19T09:32:36.592Z,29.21
2017-07-19T09:33:36.916Z,29.27
2017-07-19T09:34:36.658Z,29.26
2017-07-19T09:35:36.687Z,29.26
2017-07-19T09:36:37.027Z,29.27
2017-07-19T09:37:36.740Z,29.28
2017-07-19T09:38:37.380Z,29.28
2017-07-19T09:39:36.801Z,29.31
2017-07-19T09:40:36.838Z,29.33
2017-07-19T09:41:36.865Z,29.31
2017-07-19T09:42:36.909Z,29.33
2017-07-19T09:43:37.540Z,29.33
2017-07-19T09:44:36.645Z,29.45
2017-07-19T09:45:37.299Z,29.39
2017-07-19T09:46:37.335Z,29.46
2017-07-19T09:47:37.364Z,29.39
2017-07-19T09:48:37.642Z,29.37
2017-07-19T09:49:37.106Z,29.39
2017-07-19T09:50:37.463Z,29.43
2017-07-19T09:51:37.272Z,29.41
2017-07-19T09:52:37.201Z,29.43
2017-07-19T09:53:37.549Z,29.42
2017-07-19T09:54:37.606Z,29.42
2017-07-19T09:55:37.291Z,29.48
2017-07-19T09:56:37.320Z,29.49
2017-07-19T09:57:37.353Z,29.51
2017-07-19T09:58:37.957Z,29.51
2017-07-19T09:59:37.430Z,29.49
2017-07-19T10:00:37.452Z,29.6
2017-07-19T10:01:37.472Z,29.57
2017-07-19T10:02:37.513Z,29.53
2017-07-19T10:03:37.478Z,29.57
2017-07-19T10:04:37.568Z,29.61
2017-07-19T10:05:37.295Z,29.61
2017-07-19T10:06:37.940Z,29.63
2017-07-19T10:07:37.974Z,29.63
2017-07-19T10:08:37.989Z,29.61
2017-07-19T10:09:38.041Z,29.71
2017-07-19T10:10:37.744Z,29.64
2017-07-19T10:11:37.768Z,29.67
2017-07-19T10:12:37.814Z,29.7
2017-07-19T10:13:38.410Z,29.65
2017-07-19T10:14:38.179Z,29.7
2017-07-19T10:15:38.214Z,29.76
2017-07-19T10:16:37.936Z,29.64
2017-07-19T10:17:38.281Z,29.68
2017-07-19T10:18:37.998Z,29.71
2017-07-19T10:19:38.333Z,29.76
2017-07-19T10:20:38.072Z,29.78
2017-07-19T10:21:38.088Z,29.73
2017-07-19T10:22:38.118Z,29.8
2017-07-19T10:23:38.145Z,29.8
2017-07-19T10:24:38.483Z,29.78
2017-07-19T10:25:38.209Z,29.86
2017-07-19T10:26:38.556Z,29.8
2017-07-19T10:27:38.581Z,29.86
2017-07-19T10:28:38.614Z,29.83
2017-07-19T10:29:38.023Z,29.87
2017-07-19T10:30:38.370Z,29.86
2017-07-19T10:31:38.705Z,29.9
2017-07-19T10:32:38.735Z,29.92
2017-07-19T10:33:38.146Z,29.89
2017-07-19T10:34:38.803Z,29.94
2017-07-19T10:35:38.831Z,29.95
2017-07-19T10:36:38.864Z,29.94
2017-07-19T10:37:38.885Z,29.95
2017-07-19T10:38:38.612Z,29.94
2017-07-19T10:39:38.959Z,29.87
2017-07-19T10:40:38.668Z,29.97
2017-07-19T10:41:39.016Z,29.92
2017-07-19T10:42:38.735Z,29.89
2017-07-19T10:43:38.762Z,29.95
2017-07-19T10:44:39.120Z,29.98
2017-07-19T10:45:38.829Z,30.02
2017-07-19T10:46:39.161Z,29.94
2017-07-19T10:47:38.890Z,29.97
2017-07-19T10:48:39.235Z,29.92
2017-07-19T10:49:38.960Z,29.94
2017-07-19T10:50:38.976Z,29.89
2017-07-19T10:51:39.329Z,29.94
2017-07-19T10:52:39.034Z,30.02
2017-07-19T10:53:39.080Z,29.98
2017-07-19T10:54:39.100Z,29.98
2017-07-19T10:55:39.140Z,29.98
2017-07-19T10:56:38.858Z,30.01
2017-07-19T10:57:39.511Z,30.01
2017-07-19T10:58:39.241Z,30.01
2017-07-19T10:59:39.511Z,30
2017-07-19T11:00:39.604Z,30.01
2017-07-19T11:01:39.638Z,29.98
2017-07-19T11:02:39.684Z,30.04
2017-07-19T11:03:39.684Z,30.02
2017-07-19T11:04:39.353Z,30.04
2017-07-19T11:05:39.446Z,30
2017-07-19T11:06:39.474Z,30.02
2017-07-19T11:07:39.503Z,30.08
2017-07-19T11:08:39.540Z,30.13
2017-07-19T11:09:39.868Z,30.08
2017-07-19T11:10:39.913Z,30.11
2017-07-19T11:11:39.938Z,30.17
2017-07-19T11:12:39.971Z,30.13
2017-07-19T11:13:40.005Z,30.15
2017-07-19T11:14:40.020Z,30.16
2017-07-19T11:15:40.063Z,30.16
2017-07-19T11:16:40.095Z,30.19
2017-07-19T11:17:40.142Z,30.19
2017-07-19T11:18:40.160Z,30.19
2017-07-19T11:19:39.874Z,30.2
2017-07-19T11:20:40.213Z,30.22
2017-07-19T11:21:39.951Z,30.22
2017-07-19T11:22:39.987Z,30.22
2017-07-19T11:23:40.341Z,30.29
2017-07-19T11:24:39.977Z,30.29
2017-07-19T11:25:40.074Z,30.29
2017-07-19T11:26:40.407Z,30.32
2017-07-19T11:27:40.435Z,30.29
2017-07-19T11:28:40.164Z,30.34
2017-07-19T11:29:40.172Z,30.35
2017-07-19T11:30:40.527Z,30.37
2017-07-19T11:31:40.248Z,30.39
2017-07-19T11:32:40.271Z,30.45
2017-07-19T11:33:40.620Z,30.39
2017-07-19T11:34:40.278Z,30.53
2017-07-19T11:35:40.686Z,30.51
2017-07-19T11:36:40.722Z,30.53
2017-07-19T11:37:40.747Z,30.65
2017-07-19T11:38:40.185Z,30.7
2017-07-19T11:39:41.065Z,30.69
2017-07-19T11:40:40.533Z,30.72
2017-07-19T11:41:40.571Z,30.76
2017-07-19T11:42:40.909Z,30.73
2017-07-19T11:43:40.947Z,30.82
2017-07-19T11:44:41.274Z,30.82
2017-07-19T11:45:40.692Z,30.88
2017-07-19T11:46:40.716Z,30.97
2017-07-19T11:47:41.058Z,31.1
2017-07-19T11:48:40.780Z,31.21
2017-07-19T11:49:41.064Z,31.23
2017-07-19T11:50:41.171Z,31.26
2017-07-19T11:51:41.187Z,31.48
2017-07-19T11:52:40.925Z,31.47
2017-07-19T11:53:41.257Z,31.54
2017-07-19T11:54:41.538Z,31.63
2017-07-19T11:55:41.023Z,31.72
2017-07-19T11:56:41.354Z,31.81
2017-07-19T11:57:41.070Z,31.76
2017-07-19T11:58:41.430Z,31.85
2017-07-19T11:59:41.102Z,31.92
2017-07-19T12:00:40.863Z,31.88
2017-07-19T12:01:41.208Z,31.95
2017-07-19T12:02:41.240Z,31.89
2017-07-19T12:03:41.277Z,31.86
2017-07-19T12:04:41.583Z,31.96
2017-07-19T12:05:41.339Z,31.92
2017-07-19T12:06:41.693Z,31.78
2017-07-19T12:07:41.709Z,31.93
2017-07-19T12:08:41.432Z,31.81
2017-07-19T12:09:42.078Z,31.84
2017-07-19T12:10:41.824Z,31.96
2017-07-19T12:11:41.586Z,31.96
2017-07-19T12:12:41.564Z,31.88
2017-07-19T12:13:41.586Z,32.08
2017-07-19T12:14:42.198Z,32
2017-07-19T12:15:41.976Z,32.13
2017-07-19T12:16:41.692Z,32.11
2017-07-19T12:17:42.041Z,32.26
2017-07-19T12:18:41.768Z,32.33
2017-07-19T12:19:42.372Z,32.41
2017-07-19T12:20:41.512Z,32.5
2017-07-19T12:21:42.172Z,32.62
2017-07-19T12:22:41.897Z,32.67
2017-07-19T12:23:42.242Z,32.81
2017-07-19T12:24:42.527Z,32.72
2017-07-19T12:25:41.994Z,32.92
2017-07-19T12:26:41.720Z,33
2017-07-19T12:27:42.381Z,33.09
2017-07-19T12:28:42.091Z,33.06
2017-07-19T12:29:42.686Z,33.09
2017-07-19T12:30:42.174Z,33.15
2017-07-19T12:31:42.206Z,33.14
2017-07-19T12:32:42.237Z,33.11
2017-07-19T12:33:42.265Z,33.19
2017-07-19T12:34:42.554Z,33.14
2017-07-19T12:35:42.657Z,33.22
2017-07-19T12:36:42.385Z,33.22
2017-07-19T12:37:42.406Z,33.09
2017-07-19T12:38:42.425Z,33.14
2017-07-19T12:39:42.777Z,33.14
2017-07-19T12:40:42.503Z,33.18
2017-07-19T12:41:42.540Z,33.16
2017-07-19T12:42:42.881Z,33.14
2017-07-19T12:43:42.919Z,33.16
2017-07-19T12:44:43.254Z,33.19
2017-07-19T12:45:42.984Z,33.21
2017-07-19T12:46:42.719Z,33.34
2017-07-19T12:47:43.060Z,33.28
2017-07-19T12:48:42.783Z,33.31
2017-07-19T12:49:43.116Z,33.45
2017-07-19T12:50:43.165Z,33.5
2017-07-19T12:51:42.886Z,33.49
2017-07-19T12:52:42.915Z,33.56
2017-07-19T12:53:42.945Z,33.63
2017-07-19T12:54:42.995Z,33.63
2017-07-19T12:55:43.328Z,33.71